Time;durP1;ratioP1;P1;durP2;ratioP2;P2;SDS_P1;SDS_P2;PMS_P1;PMS_P2;Temp;Humidity;BMP_temperature;BMP_pressure;BME280_temperature;BME280_humidity;BME280_pressure;Samples;Min_cycle;Max_cycle;Signal;HPM_P1;HPM_P2
2023/05/23 00:01:20;;;;;;;;;;;;;;;18.46;76.52;98094.72;7372140;19;19914;-75
2023/05/23 00:03:48;;;;;;;;;;;;;;;18.49;76.38;98092.44;7372767;19;19922;-76
2023/05/23 00:06:19;;;;;;;;;;;;;;;18.42;76.91;98094.34;7369973;19;19974;-75
2023/05/23 00:08:47;;;;;;;;;;;;;;;18.41;76.89;98090.84;7369947;19;19943;-75
2023/05/23 00:11:14;;;;;;;;;;;;;;;18.40;77.07;98099.06;7377030;19;20332;-76
2023/05/23 00:13:41;;;;;;;;;;;;;;;18.31;77.56;98087.78;7368638;19;19930;-77
2023/05/23 00:16:08;;;;;;;;;;;;;;;18.33;77.39;98083.03;7371138;19;19926;-77
2023/05/23 00:18:35;;;;;;;;;;;;;;;18.32;77.69;98089.41;7371255;19;19976;-74
2023/05/23 00:21:02;;;;;;;;;;;;;;;18.32;77.73;98097.44;7373517;19;20351;-75
2023/05/23 00:23:32;;;;;;;;;;;;;;;18.35;77.68;98094.38;7369528;19;19922;-75
2023/05/23 00:25:59;;;;;;;;;;;;;;;18.35;77.53;98094.38;7374240;19;19915;-76
2023/05/23 00:28:26;;;;;;;;;;;;;;;18.39;77.99;98100.94;7376498;19;19923;-75
2023/05/23 00:30:53;;;;;;;;;;;;;;;18.36;77.67;98101.38;7369670;19;19950;-75
2023/05/23 00:33:20;;;;;;;;;;;;;;;18.44;77.46;98094.94;7372777;19;19919;-75
2023/05/23 00:35:48;;;;;;;;;;;;;;;18.40;77.39;98097.25;7368913;19;19926;-75
2023/05/23 00:38:15;;;;;;;;;;;;;;;18.35;77.88;98104.25;7371546;19;19923;-75
2023/05/23 00:40:42;;;;;;;;;;;;;;;18.34;77.82;98098.06;7369643;19;19922;-75
2023/05/23 00:43:11;;;;;;;;;;;;;;;18.26;78.02;98109.03;7373212;19;19919;-75
2023/05/23 00:45:38;;;;;;;;;;;;;;;18.28;78.00;98103.47;7369306;19;20344;-75
2023/05/23 00:48:05;;;;;;;;;;;;;;;18.23;78.08;98111.31;7375750;19;20418;-75
2023/05/23 00:50:33;;;;;;;;;;;;;;;18.13;78.95;98112.56;7371973;19;19925;-75
2023/05/23 00:53:00;;;;;;;;;;;;;;;18.15;79.00;98107.81;7364994;19;19919;-76
2023/05/23 00:55:27;;;;;;;;;;;;;;;18.14;79.15;98114.22;7369872;19;19932;-75
2023/05/23 00:57:57;;;;;;;;;;;;;;;18.11;79.07;98113.81;7368535;19;19937;-75
2023/05/23 01:00:24;;;;;;;;;;;;;;;18.04;79.47;98113.00;7372023;19;20399;-76
2023/05/23 01:02:51;;;;;;;;;;;;;;;18.05;79.57;98112.78;7370916;19;19922;-76
2023/05/23 01:05:18;;;;;;;;;;;;;;;18.09;79.69;98123.88;7373561;19;19926;-76
2023/05/23 01:07:46;;;;;;;;;;;;;;;18.03;79.74;98124.75;7357861;19;19919;-76
2023/05/23 01:10:13;;;;;;;;;;;;;;;17.98;79.96;98123.53;7360127;19;19925;-74
2023/05/23 01:12:42;;;;;;;;;;;;;;;17.96;80.18;98120.22;7369365;19;19958;-76
2023/05/23 01:15:10;;;;;;;;;;;;;;;17.97;80.30;98123.72;7370767;19;20360;-75
2023/05/23 01:17:49;;;;;;;;;;;;;;;17.98;80.40;98128.88;7376467;19;20361;-75
2023/05/23 01:20:20;;;;;;;;;;;;;;;17.97;80.24;98127.22;7374746;19;19950;-77
2023/05/23 01:22:54;;;;;;;;;;;;;;;18.01;80.19;98124.13;7364281;19;19917;-75
2023/05/23 01:25:23;;;;;;;;;;;;;;;17.99;79.69;98122.47;7374602;19;19930;-76
2023/05/23 01:27:50;;;;;;;;;;;;;;;17.95;80.51;98118.56;7371529;19;19922;-75
2023/05/23 01:30:18;;;;;;;;;;;;;;;17.91;80.60;98122.72;7374071;19;19926;-76
2023/05/23 01:32:45;;;;;;;;;;;;;;;17.96;80.49;98125.59;7374113;19;19950;-76
2023/05/23 01:35:12;;;;;;;;;;;;;;;18.03;80.21;98119.38;7374338;19;19954;-75
2023/05/23 01:37:39;;;;;;;;;;;;;;;17.96;80.34;98117.56;7371380;19;19918;-76
2023/05/23 01:40:06;;;;;;;;;;;;;;;17.97;80.55;98121.03;7374677;19;19923;-75
2023/05/23 01:42:35;;;;;;;;;;;;;;;17.93;80.78;98117.13;7372230;19;19918;-76
2023/05/23 01:45:01;;;;;;;;;;;;;;;17.92;80.82;98121.66;7369714;19;19974;-76
2023/05/23 01:47:32;;;;;;;;;;;;;;;17.84;80.98;98110.38;7374656;19;19923;-75
2023/05/23 01:49:59;;;;;;;;;;;;;;;17.93;80.82;98126.00;7370532;19;19943;-75
2023/05/23 01:52:26;;;;;;;;;;;;;;;18.04;80.03;98126.41;7369974;19;19922;-76
2023/05/23 01:54:53;;;;;;;;;;;;;;;17.79;81.33;98124.38;7368509;19;19923;-75
2023/05/23 01:57:19;;;;;;;;;;;;;;;17.95;80.77;98129.28;7380998;19;19923;-75
2023/05/23 01:59:46;;;;;;;;;;;;;;;18.00;80.37;98128.66;7377256;19;19930;-76
2023/05/23 02:02:14;;;;;;;;;;;;;;;18.07;79.77;98129.47;7375133;19;19993;-75
2023/05/23 02:04:40;;;;;;;;;;;;;;;17.92;80.37;98132.38;7376150;19;19923;-76
2023/05/23 02:07:07;;;;;;;;;;;;;;;18.04;79.65;98131.75;7378388;19;19918;-75
2023/05/23 02:09:34;;;;;;;;;;;;;;;18.04;79.73;98134.44;7380493;19;19982;-75
2023/05/23 02:12:01;;;;;;;;;;;;;;;18.01;79.73;98124.13;7373716;19;19930;-76
2023/05/23 02:14:28;;;;;;;;;;;;;;;17.99;79.76;98135.88;7379315;19;19925;-76
2023/05/23 02:16:54;;;;;;;;;;;;;;;17.98;79.62;98130.72;7378055;19;19929;-75
2023/05/23 02:19:21;;;;;;;;;;;;;;;18.00;79.35;98134.00;7377883;19;19922;-76
2023/05/23 02:21:48;;;;;;;;;;;;;;;17.91;80.19;98132.59;7369125;19;19934;-75
2023/05/23 02:24:16;;;;;;;;;;;;;;;17.89;80.32;98127.44;7375132;19;20427;-75
2023/05/23 02:26:44;;;;;;;;;;;;;;;17.93;79.51;98126.00;7374817;19;19922;-76
2023/05/23 02:29:11;;;;;;;;;;;;;;;17.90;80.38;98134.44;7380341;19;20458;-76
2023/05/23 02:31:37;;;;;;;;;;;;;;;17.87;80.67;98137.53;7376652;19;20512;-75
2023/05/23 02:34:04;;;;;;;;;;;;;;;17.85;81.27;98134.25;7378551;19;19918;-75
2023/05/23 02:36:32;;;;;;;;;;;;;;;17.90;81.09;98136.28;7374280;19;19919;-76
2023/05/23 02:38:58;;;;;;;;;;;;;;;17.92;81.25;98140.41;7375577;19;19947;-76
2023/05/23 02:41:25;;;;;;;;;;;;;;;17.98;81.12;98138.75;7379294;19;20550;-76
2023/05/23 02:43:52;;;;;;;;;;;;;;;18.08;80.76;98136.47;7375777;19;20089;-76
2023/05/23 02:46:19;;;;;;;;;;;;;;;18.06;80.69;98141.22;7374039;19;19940;-76
2023/05/23 02:48:47;;;;;;;;;;;;;;;18.10;80.56;98146.97;7375517;19;20635;-75
2023/05/23 02:51:13;;;;;;;;;;;;;;;18.09;80.72;98148.81;7378331;19;19915;-76
2023/05/23 02:53:40;;;;;;;;;;;;;;;18.15;80.66;98147.16;7377677;19;20240;-76
2023/05/23 02:56:07;;;;;;;;;;;;;;;18.15;80.44;98149.84;7375361;19;19922;-76
2023/05/23 02:58:34;;;;;;;;;;;;;;;18.11;80.56;98156.63;7378107;19;20784;-75
2023/05/23 03:01:01;;;;;;;;;;;;;;;18.12;80.64;98152.94;7375801;19;19919;-76
2023/05/23 03:03:30;;;;;;;;;;;;;;;18.15;80.56;98153.34;7376690;19;19917;-76
2023/05/23 03:05:57;;;;;;;;;;;;;;;18.20;80.47;98152.72;7377119;19;20341;-76
2023/05/23 03:08:30;;;;;;;;;;;;;;;18.19;80.26;98154.56;7376441;19;19919;-75
2023/05/23 03:10:57;;;;;;;;;;;;;;;18.17;80.41;98155.81;7375487;19;20393;-76
2023/05/23 03:13:23;;;;;;;;;;;;;;;18.14;80.59;98159.72;7377616;19;20815;-75
2023/05/23 03:15:50;;;;;;;;;;;;;;;18.15;80.68;98158.69;7374359;19;19915;-76
2023/05/23 03:18:17;;;;;;;;;;;;;;;18.14;80.64;98162.41;7380364;19;19938;-76
2023/05/23 03:20:44;;;;;;;;;;;;;;;18.19;80.33;98162.59;7376722;19;19955;-76
2023/05/23 03:23:11;;;;;;;;;;;;;;;18.14;80.74;98161.56;7374441;19;19918;-77
2023/05/23 03:25:38;;;;;;;;;;;;;;;18.17;80.54;98159.31;7377753;19;20710;-76
2023/05/23 03:28:05;;;;;;;;;;;;;;;18.16;80.57;98167.53;7378851;19;20293;-76
2023/05/23 03:30:32;;;;;;;;;;;;;;;18.18;80.46;98166.28;7380886;19;20286;-75
2023/05/23 03:32:59;;;;;;;;;;;;;;;18.16;80.51;98167.53;7375219;19;19923;-76
2023/05/23 03:35:27;;;;;;;;;;;;;;;18.21;80.44;98173.91;7377272;19;19931;-76
2023/05/23 03:37:54;;;;;;;;;;;;;;;18.26;80.06;98164.44;7369056;19;19938;-76
2023/05/23 03:40:21;;;;;;;;;;;;;;;18.34;79.92;98170.38;7377368;19;19922;-76
2023/05/23 03:42:48;;;;;;;;;;;;;;;18.35;79.76;98171.19;7370863;19;19930;-76
2023/05/23 03:45:15;;;;;;;;;;;;;;;18.36;79.73;98168.31;7375991;19;19949;-76
2023/05/23 03:47:42;;;;;;;;;;;;;;;18.31;79.51;98173.47;7382704;19;20305;-76
2023/05/23 03:50:09;;;;;;;;;;;;;;;18.26;79.73;98170.59;7379248;19;19915;-76
2023/05/23 03:52:36;;;;;;;;;;;;;;;18.27;79.76;98166.06;7366586;19;19918;-76
2023/05/23 03:55:03;;;;;;;;;;;;;;;18.26;79.66;98159.91;7373423;19;20253;-76
2023/05/23 03:57:30;;;;;;;;;;;;;;;18.24;79.83;98161.94;7377027;19;19930;-76
2023/05/23 03:59:57;;;;;;;;;;;;;;;18.21;79.67;98159.69;7374401;19;20644;-76
2023/05/23 04:02:25;;;;;;;;;;;;;;;18.16;79.74;98168.34;7375028;19;19922;-75
2023/05/23 04:04:52;;;;;;;;;;;;;;;18.07;80.21;98169.63;7375706;19;20005;-76
2023/05/23 04:07:19;;;;;;;;;;;;;;;18.17;79.81;98169.19;7377396;19;19983;-76
2023/05/23 04:09:47;;;;;;;;;;;;;;;18.15;80.23;98177.44;7370196;19;19925;-76
2023/05/23 04:12:14;;;;;;;;;;;;;;;18.15;80.53;98173.94;7375423;19;19919;-76
2023/05/23 04:14:41;;;;;;;;;;;;;;;18.15;80.39;98176.63;7375043;19;19974;-75
2023/05/23 04:17:08;;;;;;;;;;;;;;;18.15;80.17;98181.97;7375299;19;20249;-76
2023/05/23 04:19:35;;;;;;;;;;;;;;;18.19;80.01;98177.81;7376168;19;20010;-76
2023/05/23 04:22:02;;;;;;;;;;;;;;;18.15;80.23;98181.97;7369357;19;19919;-76
2023/05/23 04:24:29;;;;;;;;;;;;;;;18.06;80.30;98184.06;7376115;19;19921;-76
2023/05/23 04:26:56;;;;;;;;;;;;;;;18.15;80.01;98177.44;7370996;19;19930;-76
2023/05/23 04:29:25;;;;;;;;;;;;;;;18.26;79.89;98186.69;7376305;19;19935;-75
2023/05/23 04:31:53;;;;;;;;;;;;;;;18.27;79.55;98187.50;7364767;19;20018;-75
2023/05/23 04:34:21;;;;;;;;;;;;;;;18.24;79.89;98187.91;7374966;19;19911;-76
2023/05/23 04:36:48;;;;;;;;;;;;;;;18.21;79.85;98186.47;7374040;19;19933;-75
2023/05/23 04:39:15;;;;;;;;;;;;;;;18.21;79.95;98187.28;7372845;19;19923;-76
2023/05/23 04:41:55;;;;;;;;;;;;;;;18.33;79.46;98184.00;7368960;19;19915;-76
2023/05/23 04:44:43;;;;;;;;;;;;;;;18.37;79.83;98191.38;7373827;19;19934;-76
2023/05/23 04:47:15;;;;;;;;;;;;;;;18.32;79.64;98195.72;7373431;19;19918;-76
2023/05/23 04:50:01;;;;;;;;;;;;;;;18.35;79.29;98203.31;7370569;19;20421;-76
2023/05/23 04:52:32;;;;;;;;;;;;;;;18.43;79.02;98195.06;7368925;19;19943;-76
2023/05/23 04:54:59;;;;;;;;;;;;;;;18.40;79.37;98204.38;7374337;19;19951;-76
2023/05/23 04:57:26;;;;;;;;;;;;;;;18.44;79.07;98199.41;7374875;19;19910;-76
2023/05/23 04:59:53;;;;;;;;;;;;;;;18.43;79.00;98201.28;7369935;19;19940;-75
2023/05/23 05:02:19;;;;;;;;;;;;;;;18.35;79.39;98201.50;7367334;19;19939;-77
2023/05/23 05:04:46;;;;;;;;;;;;;;;18.38;79.08;98205.63;7372415;19;19915;-76
2023/05/23 05:07:14;;;;;;;;;;;;;;;18.29;79.26;98205.00;7371730;19;20003;-75
2023/05/23 05:09:40;;;;;;;;;;;;;;;18.34;79.27;98207.88;7375815;19;19943;-76
2023/05/23 05:12:09;;;;;;;;;;;;;;;18.39;79.02;98210.75;7367418;19;19919;-76
2023/05/23 05:14:38;;;;;;;;;;;;;;;18.40;79.20;98211.56;7371553;19;20274;-76
2023/05/23 05:17:04;;;;;;;;;;;;;;;18.38;79.00;98216.31;7372113;19;19937;-76
2023/05/23 05:19:40;;;;;;;;;;;;;;;18.37;79.23;98214.66;7370266;19;19947;-76
2023/05/23 05:22:06;;;;;;;;;;;;;;;18.35;79.06;98212.22;7366049;19;19930;-76
2023/05/23 05:24:34;;;;;;;;;;;;;;;18.29;79.39;98218.38;7372577;19;19926;-76
2023/05/23 05:27:00;;;;;;;;;;;;;;;18.39;79.03;98224.13;7373032;19;20820;-77
2023/05/23 05:29:28;;;;;;;;;;;;;;;18.41;79.22;98218.59;7376228;19;20305;-76
2023/05/23 05:31:55;;;;;;;;;;;;;;;18.30;79.13;98220.06;7377991;19;19927;-77
2023/05/23 05:34:23;;;;;;;;;;;;;;;18.37;79.34;98217.34;7383593;19;19927;-76
2023/05/23 05:36:54;;;;;;;;;;;;;;;18.43;79.05;98217.34;7374024;19;19982;-75
2023/05/23 05:39:23;;;;;;;;;;;;;;;18.47;79.27;98223.09;7381938;19;19922;-76
2023/05/23 05:41:50;;;;;;;;;;;;;;;18.46;78.96;98220.59;7378319;19;20718;-76
2023/05/23 05:44:17;;;;;;;;;;;;;;;18.46;79.00;98223.28;7381945;19;19946;-75
2023/05/23 05:46:44;;;;;;;;;;;;;;;18.54;79.19;98223.09;7377581;19;19948;-75
2023/05/23 05:49:11;;;;;;;;;;;;;;;18.47;78.37;98227.63;7377078;19;19911;-76
2023/05/23 05:51:38;;;;;;;;;;;;;;;18.52;78.49;98220.59;7377169;19;19922;-74
2023/05/23 05:54:05;;;;;;;;;;;;;;;18.56;78.40;98221.00;7378455;19;20331;-76
2023/05/23 05:56:32;;;;;;;;;;;;;;;18.54;78.28;98218.53;7382012;19;19943;-76
2023/05/23 05:58:59;;;;;;;;;;;;;;;18.60;78.28;98222.22;7379882;19;19958;-77
2023/05/23 06:01:25;;;;;;;;;;;;;;;18.57;77.93;98228.84;7382593;19;20340;-76
2023/05/23 06:03:52;;;;;;;;;;;;;;;18.65;77.53;98230.47;7375821;19;20280;-75
2023/05/23 06:06:20;;;;;;;;;;;;;;;18.69;77.89;98234.34;7374400;19;19923;-76
2023/05/23 06:08:48;;;;;;;;;;;;;;;18.74;77.75;98233.72;7380925;19;19929;-77
2023/05/23 06:11:15;;;;;;;;;;;;;;;18.69;77.65;98237.03;7380999;19;19926;-76
2023/05/23 06:13:42;;;;;;;;;;;;;;;18.53;77.03;98232.97;7374188;19;19946;-76
2023/05/23 06:16:09;;;;;;;;;;;;;;;18.47;77.42;98233.81;7376120;19;20295;-78
2023/05/23 06:18:36;;;;;;;;;;;;;;;18.36;77.97;98242.50;7381969;19;19915;-76
2023/05/23 06:21:03;;;;;;;;;;;;;;;18.49;77.63;98237.09;7375992;19;20426;-75
2023/05/23 06:23:32;;;;;;;;;;;;;;;18.67;77.42;98238.28;7373681;19;19922;-76
2023/05/23 06:25:58;;;;;;;;;;;;;;;18.63;77.03;98241.38;7375848;19;19947;-77
2023/05/23 06:28:25;;;;;;;;;;;;;;;18.71;76.83;98240.31;7379612;19;19967;-76
2023/05/23 06:30:52;;;;;;;;;;;;;;;18.69;76.96;98239.72;7375328;19;19923;-76
2023/05/23 06:33:18;;;;;;;;;;;;;;;18.78;76.95;98245.72;7381419;19;19915;-75
2023/05/23 06:35:47;;;;;;;;;;;;;;;18.68;76.12;98247.97;7381292;19;19927;-76
2023/05/23 06:38:14;;;;;;;;;;;;;;;18.77;76.06;98252.94;7376181;19;19915;-77
2023/05/23 06:40:43;;;;;;;;;;;;;;;18.64;76.62;98255.59;7377679;19;19927;-76
2023/05/23 06:43:10;;;;;;;;;;;;;;;18.57;76.95;98249.44;7365129;19;19934;-75
2023/05/23 06:45:47;;;;;;;;;;;;;;;18.58;76.79;98257.25;7379744;19;20005;-79
2023/05/23 06:48:14;;;;;;;;;;;;;;;18.75;76.21;98252.31;7377418;19;20350;-77
2023/05/23 06:50:42;;;;;;;;;;;;;;;18.61;76.64;98258.69;7380817;19;19982;-76
2023/05/23 06:53:10;;;;;;;;;;;;;;;18.78;76.79;98265.28;7374454;19;19924;-75
2023/05/23 06:55:37;;;;;;;;;;;;;;;18.73;76.27;98264.25;7377277;19;19938;-75
2023/05/23 06:58:06;;;;;;;;;;;;;;;18.62;75.86;98265.72;7370590;19;19942;-77
2023/05/23 07:00:35;;;;;;;;;;;;;;;18.76;75.75;98272.72;7380190;19;20543;-76
2023/05/23 07:03:10;;;;;;;;;;;;;;;18.82;76.49;98282.56;7376123;19;19922;-76
2023/05/23 07:05:37;;;;;;;;;;;;;;;18.62;76.05;98277.25;7376766;19;19919;-78
2023/05/23 07:08:09;;;;;;;;;;;;;;;18.64;76.23;98271.66;7374424;19;19923;-76
2023/05/23 07:10:40;;;;;;;;;;;;;;;18.66;76.44;98288.38;7381141;19;20017;-76
2023/05/23 07:13:25;;;;;;;;;;;;;;;18.57;76.04;98284.28;7379042;19;19923;-75
2023/05/23 07:15:52;;;;;;;;;;;;;;;18.51;76.31;98288.63;7375300;19;19954;-76
2023/05/23 07:18:19;;;;;;;;;;;;;;;18.27;76.96;98292.75;7379644;19;19939;-78
2023/05/23 07:20:46;;;;;;;;;;;;;;;18.29;76.74;98298.72;7383059;19;20273;-77
2023/05/23 07:23:16;;;;;;;;;;;;;;;18.23;76.98;98291.53;7375570;19;19929;-76
2023/05/23 07:25:45;;;;;;;;;;;;;;;18.20;77.39;98297.31;7380468;19;19935;-75
2023/05/23 07:28:32;;;;;;;;;;;;;;;18.24;77.28;98298.53;7379406;19;20253;-78
2023/05/23 07:31:00;;;;;;;;;;;;;;;18.08;76.75;98301.63;7375373;19;20378;-75
2023/05/23 07:33:27;;;;;;;;;;;;;;;18.07;77.03;98299.97;7377062;19;19915;-76
2023/05/23 07:36:00;;;;;;;;;;;;;;;18.14;76.98;98300.78;7378476;19;19923;-78
2023/05/23 07:38:27;;;;;;;;;;;;;;;18.11;75.92;98302.03;7379079;19;19925;-77
2023/05/23 07:40:53;;;;;;;;;;;;;;;18.09;75.85;98303.25;7378835;19;19927;-76
2023/05/23 07:43:35;;;;;;;;;;;;;;;18.30;75.25;98300.38;7378433;19;20284;-77
2023/05/23 07:46:02;;;;;;;;;;;;;;;18.37;74.73;98300.38;7374023;19;19985;-76
2023/05/23 07:48:30;;;;;;;;;;;;;;;18.48;73.85;98302.41;7377251;19;19958;-76
2023/05/23 07:50:57;;;;;;;;;;;;;;;18.74;74.02;98300.72;7373417;19;19919;-77
2023/05/23 07:53:23;;;;;;;;;;;;;;;18.64;72.58;98298.47;7377089;19;19919;-75
2023/05/23 07:55:51;;;;;;;;;;;;;;;18.65;72.82;98306.31;7379981;19;19933;-77
2023/05/23 07:58:19;;;;;;;;;;;;;;;18.78;72.24;98304.69;7376289;19;20311;-75
2023/05/23 08:00:47;;;;;;;;;;;;;;;18.82;72.33;98300.53;7377581;19;19923;-80
2023/05/23 08:03:37;;;;;;;;;;;;;;;18.93;71.78;98310.63;7373854;19;19919;-76
2023/05/23 08:06:10;;;;;;;;;;;;;;;19.21;71.98;98312.16;7369395;19;19929;-77
2023/05/23 08:08:37;;;;;;;;;;;;;;;19.25;72.01;98316.88;7375766;19;19915;-76
2023/05/23 08:11:06;;;;;;;;;;;;;;;19.14;70.12;98319.38;7375999;19;19939;-77
2023/05/23 08:13:39;;;;;;;;;;;;;;;19.16;70.45;98331.56;7378052;19;19922;-80
2023/05/23 08:16:36;;;;;;;;;;;;;;;19.06;69.76;98328.50;7377784;19;19914;-80
2023/05/23 08:19:11;;;;;;;;;;;;;;;18.84;70.05;98336.00;7375984;19;19922;-78
2023/05/23 08:21:38;;;;;;;;;;;;;;;18.55;69.93;98331.88;7375039;19;19918;-80
2023/05/23 08:24:05;;;;;;;;;;;;;;;18.75;70.58;98335.41;7377506;19;20352;-79
2023/05/23 08:26:36;;;;;;;;;;;;;;;18.79;70.74;98331.25;7378307;19;20076;-77
2023/05/23 08:29:05;;;;;;;;;;;;;;;18.80;70.14;98337.44;7377516;19;19960;-79
2023/05/23 08:31:32;;;;;;;;;;;;;;;19.03;70.38;98328.91;7377596;19;19959;-78
2023/05/23 08:34:07;;;;;;;;;;;;;;;19.02;69.56;98338.00;7374900;19;19918;-76
2023/05/23 08:36:35;;;;;;;;;;;;;;;18.80;69.59;98338.28;7373636;19;19986;-79
2023/05/23 08:39:04;;;;;;;;;;;;;;;18.80;69.70;98340.97;7372384;19;20267;-79
2023/05/23 08:41:35;;;;;;;;;;;;;;;19.01;68.81;98345.22;7377016;19;19938;-77
2023/05/23 08:44:07;;;;;;;;;;;;;;;18.84;69.56;98347.53;7378835;19;19941;-77
2023/05/23 08:46:48;;;;;;;;;;;;;;;19.04;69.10;98341.31;7377829;19;19925;-78
2023/05/23 08:49:42;;;;;;;;;;;;;;;18.99;68.80;98343.78;7380478;19;19923;-77
2023/05/23 08:52:10;;;;;;;;;;;;;;;19.29;68.74;98352.97;7370379;19;19927;-79
2023/05/23 08:54:39;;;;;;;;;;;;;;;19.57;68.36;98346.47;7377365;19;20304;-78
2023/05/23 08:57:06;;;;;;;;;;;;;;;19.49;67.21;98352.06;7378417;19;19951;-78
2023/05/23 08:59:39;;;;;;;;;;;;;;;19.01;67.56;98357.78;7384823;19;19921;-77
2023/05/23 09:02:07;;;;;;;;;;;;;;;19.04;68.26;98362.75;7375370;19;19974;-77
2023/05/23 09:04:35;;;;;;;;;;;;;;;18.93;69.09;98358.88;7383195;19;19918;-78
2023/05/23 09:07:09;;;;;;;;;;;;;;;18.87;68.46;98367.72;7383982;19;19959;-80
2023/05/23 09:09:36;;;;;;;;;;;;;;;18.86;68.04;98364.22;7387779;19;20392;-82
2023/05/23 09:12:05;;;;;;;;;;;;;;;18.72;68.67;98367.94;7379690;19;20403;-78
2023/05/23 09:14:36;;;;;;;;;;;;;;;18.86;68.56;98369.59;7390570;19;19939;-78
2023/05/23 09:17:06;;;;;;;;;;;;;;;18.79;67.90;98366.09;7385184;19;19950;-76
2023/05/23 09:19:32;;;;;;;;;;;;;;;19.01;67.23;98374.72;7385527;19;19929;-77
2023/05/23 09:22:12;;;;;;;;;;;;;;;19.16;67.02;98379.81;7381338;19;19932;-77
2023/05/23 09:24:52;;;;;;;;;;;;;;;19.11;66.75;98378.81;7385935;19;19918;-81
2023/05/23 09:27:19;;;;;;;;;;;;;;;19.24;66.56;98384.13;7383625;19;19964;-79
2023/05/23 09:29:49;;;;;;;;;;;;;;;19.34;66.07;98373.78;7386827;19;19927;-80
2023/05/23 09:32:18;;;;;;;;;;;;;;;19.20;65.96;98382.94;7380772;19;19919;-76
2023/05/23 09:34:57;;;;;;;;;;;;;;;19.34;65.92;98376.47;7382752;19;19918;-78
2023/05/23 09:37:35;;;;;;;;;;;;;;;19.46;65.46;98373.97;7377714;19;19922;-80
2023/05/23 09:40:05;;;;;;;;;;;;;;;19.10;66.26;98378.00;7384661;19;19923;-77
2023/05/23 09:42:33;;;;;;;;;;;;;;;19.26;66.05;98380.22;7383606;19;19914;-77
2023/05/23 09:44:59;;;;;;;;;;;;;;;19.43;66.39;98383.25;7383275;19;19923;-80
2023/05/23 09:47:30;;;;;;;;;;;;;;;19.40;64.99;98380.16;7385940;19;19915;-80
2023/05/23 09:49:57;;;;;;;;;;;;;;;19.22;65.33;98386.19;7385258;19;19919;-80
2023/05/23 09:52:24;;;;;;;;;;;;;;;19.00;66.72;98383.78;7375666;19;19919;-79
2023/05/23 09:54:51;;;;;;;;;;;;;;;18.95;65.75;98388.94;7385804;19;19914;-77
2023/05/23 09:57:18;;;;;;;;;;;;;;;18.99;65.70;98387.50;7383149;19;19915;-80
2023/05/23 09:59:49;;;;;;;;;;;;;;;19.07;66.19;98389.97;7385737;19;19931;-79
2023/05/23 10:02:16;;;;;;;;;;;;;;;19.15;66.06;98393.47;7379507;19;19953;-79
2023/05/23 10:04:43;;;;;;;;;;;;;;;19.19;66.32;98390.13;7381423;19;19921;-77
2023/05/23 10:07:15;;;;;;;;;;;;;;;18.96;65.32;98385.25;7379721;19;19919;-79
2023/05/23 10:09:42;;;;;;;;;;;;;;;19.04;64.89;98382.34;7386674;19;19926;-78
2023/05/23 10:12:28;;;;;;;;;;;;;;;19.12;65.13;98388.53;7373030;19;19915;-76
2023/05/23 10:14:56;;;;;;;;;;;;;;;19.23;64.21;98388.69;7382874;19;19915;-79
2023/05/23 10:17:38;;;;;;;;;;;;;;;19.06;64.35;98387.47;7379479;19;19922;-79
2023/05/23 10:20:07;;;;;;;;;;;;;;;19.13;64.05;98387.47;7386120;19;20368;-78
2023/05/23 10:22:35;;;;;;;;;;;;;;;19.26;63.71;98395.50;7381787;19;19915;-77
2023/05/23 10:25:06;;;;;;;;;;;;;;;19.20;63.97;98393.66;7383644;19;19917;-79
2023/05/23 10:27:32;;;;;;;;;;;;;;;19.26;63.94;98398.16;7386818;19;20017;-79
2023/05/23 10:29:59;;;;;;;;;;;;;;;19.08;63.89;98390.78;7385722;19;19918;-79
2023/05/23 10:32:26;;;;;;;;;;;;;;;19.18;64.11;98393.84;7384531;19;19966;-78
2023/05/23 10:34:53;;;;;;;;;;;;;;;19.12;63.21;98401.94;7383874;19;19943;-81
2023/05/23 10:37:28;;;;;;;;;;;;;;;19.32;64.39;98399.19;7381769;19;19915;-77
2023/05/23 10:40:05;;;;;;;;;;;;;;;19.31;63.51;98395.69;7389782;19;19939;-78
2023/05/23 10:42:34;;;;;;;;;;;;;;;19.37;64.61;98388.63;7387313;19;19914;-79
2023/05/23 10:45:14;;;;;;;;;;;;;;;19.22;62.75;98396.94;7388509;19;19911;-78
2023/05/23 10:47:43;;;;;;;;;;;;;;;19.29;62.82;98395.88;7386376;19;19922;-82
2023/05/23 10:50:13;;;;;;;;;;;;;;;19.29;62.75;98397.75;7387254;19;19922;-78
2023/05/23 10:52:40;;;;;;;;;;;;;;;19.30;62.96;98394.88;7381797;19;19986;-79
2023/05/23 10:55:16;;;;;;;;;;;;;;;19.15;62.58;98398.81;7384711;19;19950;-82
2023/05/23 10:57:43;;;;;;;;;;;;;;;19.28;62.43;98394.25;7387350;19;19926;-79
2023/05/23 11:00:14;;;;;;;;;;;;;;;19.36;62.53;98395.06;7383786;19;19914;-84
2023/05/23 11:02:58;;;;;;;;;;;;;;;19.26;62.13;98403.53;7387125;19;19925;-79
2023/05/23 11:05:30;;;;;;;;;;;;;;;19.37;61.53;98394.81;7384233;19;19911;-83
2023/05/23 11:08:07;;;;;;;;;;;;;;;19.28;61.29;98398.78;7380434;19;19939;-81
2023/05/23 11:10:53;;;;;;;;;;;;;;;19.47;63.51;98397.88;7386978;19;19915;-80
2023/05/23 11:13:20;;;;;;;;;;;;;;;19.40;61.71;98402.44;7383486;19;19914;-80
2023/05/23 11:15:47;;;;;;;;;;;;;;;19.39;61.68;98405.34;7385161;19;19994;-80
2023/05/23 11:18:25;;;;;;;;;;;;;;;19.29;60.98;98403.91;7379646;19;20485;-79
2023/05/23 11:20:52;;;;;;;;;;;;;;;19.61;61.96;98405.88;7383177;19;20463;-78
2023/05/23 11:23:20;;;;;;;;;;;;;;;19.58;61.00;98404.44;7376522;19;19947;-79
2023/05/23 11:25:48;;;;;;;;;;;;;;;19.71;60.03;98407.09;7380965;19;20297;-80
2023/05/23 11:28:16;;;;;;;;;;;;;;;19.81;59.90;98405.84;7380144;19;19919;-79
2023/05/23 11:30:42;;;;;;;;;;;;;;;19.83;59.08;98401.06;7383986;19;20623;-80
2023/05/23 11:33:12;;;;;;;;;;;;;;;20.03;60.15;98399.06;7380836;19;21051;-80
2023/05/23 11:35:40;;;;;;;;;;;;;;;20.10;58.69;98404.44;7385881;19;20501;-78
2023/05/23 11:38:07;;;;;;;;;;;;;;;20.15;58.64;98396.53;7378480;19;19981;-80
2023/05/23 11:40:41;;;;;;;;;;;;;;;20.16;59.51;98392.81;7381751;19;19946;-79
2023/05/23 11:43:10;;;;;;;;;;;;;;;20.54;56.64;98400.00;7382080;19;19974;-79
2023/05/23 11:45:37;;;;;;;;;;;;;;;20.82;56.66;98400.38;7386241;19;19922;-80
2023/05/23 11:48:08;;;;;;;;;;;;;;;20.81;58.96;98395.22;7387832;19;20066;-78
2023/05/23 11:50:42;;;;;;;;;;;;;;;20.76;56.86;98398.56;7384410;19;19921;-83
2023/05/23 11:53:17;;;;;;;;;;;;;;;20.90;56.34;98395.75;7379409;19;19943;-79
2023/05/23 11:55:47;;;;;;;;;;;;;;;20.82;56.05;98394.97;7385315;19;19918;-78
2023/05/23 11:58:14;;;;;;;;;;;;;;;21.04;57.58;98397.28;7377558;19;20949;-79
2023/05/23 12:00:44;;;;;;;;;;;;;;;21.40;57.03;98393.78;7380912;19;19923;-80
2023/05/23 12:03:11;;;;;;;;;;;;;;;21.14;55.23;98394.88;7381469;19;19915;-84
2023/05/23 12:05:38;;;;;;;;;;;;;;;20.98;55.80;98395.47;7385260;19;19919;-78
2023/05/23 12:08:05;;;;;;;;;;;;;;;20.94;56.44;98395.09;7384118;19;19919;-79
2023/05/23 12:10:32;;;;;;;;;;;;;;;20.75;56.63;98396.13;7382968;19;20355;-80
2023/05/23 12:13:03;;;;;;;;;;;;;;;20.50;56.93;98393.38;7379144;19;20012;-78
2023/05/23 12:15:30;;;;;;;;;;;;;;;20.58;55.34;98391.28;7371505;19;19919;-77
2023/05/23 12:17:57;;;;;;;;;;;;;;;20.54;56.17;98389.25;7379510;19;19925;-80
2023/05/23 12:20:25;;;;;;;;;;;;;;;20.50;55.32;98390.69;7379754;19;19929;-81
2023/05/23 12:22:52;;;;;;;;;;;;;;;20.54;55.90;98390.09;7381648;19;20717;-79
2023/05/23 12:25:22;;;;;;;;;;;;;;;20.73;57.67;98382.06;7381649;19;19910;-81
2023/05/23 12:27:48;;;;;;;;;;;;;;;20.61;54.10;98377.38;7383897;19;20549;-80
2023/05/23 12:30:15;;;;;;;;;;;;;;;21.13;56.35;98370.91;7377990;19;19991;-79
2023/05/23 12:32:43;;;;;;;;;;;;;;;21.23;53.32;98369.34;7379959;19;19915;-80
2023/05/23 12:35:13;;;;;;;;;;;;;;;21.69;53.51;98372.53;7384983;19;19915;-82
2023/05/23 12:37:44;;;;;;;;;;;;;;;21.57;52.77;98361.72;7384378;19;19946;-80
2023/05/23 12:40:13;;;;;;;;;;;;;;;21.56;53.77;98359.22;7381747;19;19955;-78
2023/05/23 12:42:44;;;;;;;;;;;;;;;21.32;52.57;98371.72;7382613;19;19915;-82
2023/05/23 12:45:12;;;;;;;;;;;;;;;21.10;53.54;98365.97;7379756;19;20721;-79
2023/05/23 12:47:39;;;;;;;;;;;;;;;21.12;53.96;98366.59;7381086;19;20654;-79
2023/05/23 12:50:06;;;;;;;;;;;;;;;21.00;53.42;98359.22;7382612;19;19911;-82
2023/05/23 12:52:35;;;;;;;;;;;;;;;21.28;53.04;98363.28;7381056;19;19923;-81
2023/05/23 12:55:02;;;;;;;;;;;;;;;21.51;53.58;98356.41;7381358;19;19926;-78
2023/05/23 12:57:30;;;;;;;;;;;;;;;21.55;53.19;98360.28;7380824;19;19929;-82